Time;durP1;ratioP1;P1;durP2;ratioP2;P2;SDS_P1;SDS_P2;PMS_P1;PMS_P2;Temp;Humidity;BMP_temperature;BMP_pressure;BME280_temperature;BME280_humidity;BME280_pressure;Samples;Min_cycle;Max_cycle;Signal;HPM_P1;HPM_P2
2022/07/24 00:00:21;;;;;;;7.47;4.82;;;;;;;;;;4947916;28;20026;-63
2022/07/24 00:02:47;;;;;;;5.15;4.13;;;;;;;;;;4948056;28;20096;-62
2022/07/24 00:05:12;;;;;;;6.90;4.63;;;;;;;;;;4949393;28;20030;-62
2022/07/24 00:07:37;;;;;;;7.80;5.07;;;;;;;;;;4948190;28;20022;-64
2022/07/24 00:10:04;;;;;;;6.15;4.63;;;;;;;;;;4948547;28;20433;-62
2022/07/24 00:12:29;;;;;;;5.68;4.63;;;;;;;;;;4948198;28;20447;-62
2022/07/24 00:14:55;;;;;;;6.25;4.47;;;;;;;;;;4947832;28;20432;-63
2022/07/24 00:17:20;;;;;;;9.73;5.18;;;;;;;;;;4947561;28;20413;-63
2022/07/24 00:19:45;;;;;;;6.63;4.88;;;;;;;;;;4947605;28;20531;-63
2022/07/24 00:22:11;;;;;;;8.38;5.05;;;;;;;;;;4947915;28;20507;-63
2022/07/24 00:24:36;;;;;;;6.15;4.38;;;;;;;;;;4948222;28;20672;-63
2022/07/24 00:27:02;;;;;;;6.45;4.72;;;;;;;;;;4947993;28;20348;-62
2022/07/24 00:29:28;;;;;;;6.50;4.38;;;;;;;;;;4947869;28;20349;-63
2022/07/24 00:31:53;;;;;;;6.57;5.50;;;;;;;;;;4947460;28;20022;-63
2022/07/24 00:34:18;;;;;;;6.80;4.60;;;;;;;;;;4947525;28;20484;-63
2022/07/24 00:36:44;;;;;;;5.97;4.50;;;;;;;;;;4947689;28;20420;-63
2022/07/24 00:39:10;;;;;;;5.70;4.70;;;;;;;;;;4947845;28;20042;-63
2022/07/24 00:41:35;;;;;;;8.10;5.18;;;;;;;;;;4947777;28;20336;-62
2022/07/24 00:44:12;;;;;;;7.68;4.75;;;;;;;;;;4947619;28;20456;-62
2022/07/24 00:46:40;;;;;;;8.40;5.13;;;;;;;;;;4947524;28;20431;-63
2022/07/24 00:49:08;;;;;;;6.70;4.47;;;;;;;;;;4947806;28;20346;-62
2022/07/24 00:51:34;;;;;;;6.45;4.47;;;;;;;;;;4947467;28;20441;-64
2022/07/24 00:54:03;;;;;;;7.72;4.88;;;;;;;;;;4950109;28;20341;-62
2022/07/24 00:56:29;;;;;;;6.88;4.88;;;;;;;;;;4951239;28;20101;-63
2022/07/24 00:58:54;;;;;;;7.97;5.30;;;;;;;;;;4950671;28;20092;-62
2022/07/24 01:01:20;;;;;;;6.47;4.78;;;;;;;;;;4945930;28;20576;-63
2022/07/24 01:03:45;;;;;;;6.90;4.78;;;;;;;;;;4943867;28;20053;-63
2022/07/24 01:06:11;;;;;;;8.75;6.07;;;;;;;;;;4952785;28;20507;-63
2022/07/24 01:08:36;;;;;;;7.32;5.30;;;;;;;;;;4950872;28;20412;-64
2022/07/24 01:11:04;;;;;;;6.00;4.68;;;;;;;;;;4949174;28;20388;-63
2022/07/24 01:13:29;;;;;;;7.35;4.85;;;;;;;;;;4951246;28;20460;-62
2022/07/24 01:15:56;;;;;;;8.45;5.00;;;;;;;;;;4952369;28;20383;-62
2022/07/24 01:18:21;;;;;;;6.43;4.85;;;;;;;;;;4951235;28;20364;-64
2022/07/24 01:20:47;;;;;;;6.65;4.85;;;;;;;;;;4951465;28;20365;-62
2022/07/24 01:23:13;;;;;;;7.60;5.18;;;;;;;;;;4950845;28;20452;-62
2022/07/24 01:25:39;;;;;;;8.63;5.55;;;;;;;;;;4950436;28;20376;-64
2022/07/24 01:28:05;;;;;;;7.05;5.18;;;;;;;;;;4950476;28;20413;-61
2022/07/24 01:30:30;;;;;;;7.28;4.88;;;;;;;;;;4950971;28;20420;-62
2022/07/24 01:32:55;;;;;;;7.07;4.88;;;;;;;;;;4952023;28;20345;-63
2022/07/24 01:35:21;;;;;;;5.40;4.30;;;;;;;;;;4952296;28;20022;-62
2022/07/24 01:37:46;;;;;;;8.10;4.60;;;;;;;;;;4951623;28;20380;-62
2022/07/24 01:40:11;;;;;;;6.95;4.95;;;;;;;;;;4952006;28;20417;-62
2022/07/24 01:42:37;;;;;;;5.90;4.40;;;;;;;;;;4951545;28;20065;-62
2022/07/24 01:45:03;;;;;;;7.45;5.13;;;;;;;;;;4951769;28;20361;-62
2022/07/24 01:47:28;;;;;;;6.47;4.88;;;;;;;;;;4951137;28;20038;-63
2022/07/24 01:49:54;;;;;;;6.72;5.03;;;;;;;;;;4951671;28;20026;-62
2022/07/24 01:52:19;;;;;;;7.00;4.88;;;;;;;;;;4951728;28;20356;-62
2022/07/24 01:54:45;;;;;;;7.28;4.90;;;;;;;;;;4951825;28;20403;-63
2022/07/24 01:57:10;;;;;;;5.95;4.53;;;;;;;;;;4951777;28;20426;-62
2022/07/24 01:59:35;;;;;;;6.63;5.00;;;;;;;;;;4951626;28;20022;-62
2022/07/24 02:02:01;;;;;;;11.07;5.05;;;;;;;;;;4951608;28;20383;-62
2022/07/24 02:04:26;;;;;;;7.80;5.65;;;;;;;;;;4952241;28;20360;-61
2022/07/24 02:06:52;;;;;;;7.40;4.78;;;;;;;;;;4952002;28;20048;-62
2022/07/24 02:09:17;;;;;;;6.85;5.00;;;;;;;;;;4952388;28;21060;-62
2022/07/24 02:11:43;;;;;;;6.75;4.78;;;;;;;;;;4951982;28;20502;-62
2022/07/24 02:14:08;;;;;;;6.95;4.55;;;;;;;;;;4952997;28;20422;-63
2022/07/24 02:16:34;;;;;;;7.75;4.45;;;;;;;;;;4950936;28;20348;-62
2022/07/24 02:18:59;;;;;;;6.93;4.78;;;;;;;;;;4951365;28;20085;-62
2022/07/24 02:21:25;;;;;;;6.43;4.78;;;;;;;;;;4950674;28;20152;-62
2022/07/24 02:23:50;;;;;;;6.20;4.40;;;;;;;;;;4952283;28;20048;-62
2022/07/24 02:26:16;;;;;;;7.88;4.50;;;;;;;;;;4951193;28;20445;-62
2022/07/24 02:28:41;;;;;;;8.05;4.63;;;;;;;;;;4951227;28;20360;-62
2022/07/24 02:31:06;;;;;;;7.00;4.65;;;;;;;;;;4951232;28;20527;-61
2022/07/24 02:33:32;;;;;;;5.57;4.63;;;;;;;;;;4950878;28;20344;-62
2022/07/24 02:35:57;;;;;;;6.25;4.82;;;;;;;;;;4951908;28;20352;-64
2022/07/24 02:38:23;;;;;;;5.75;4.53;;;;;;;;;;4951060;28;20466;-61
2022/07/24 02:40:48;;;;;;;7.05;4.82;;;;;;;;;;4950852;28;20318;-62
2022/07/24 02:43:14;;;;;;;6.53;4.68;;;;;;;;;;4950710;28;20382;-61
2022/07/24 02:45:39;;;;;;;7.55;4.45;;;;;;;;;;4950642;28;20100;-62
2022/07/24 02:48:05;;;;;;;6.38;4.75;;;;;;;;;;4950388;28;20516;-62
2022/07/24 02:50:32;;;;;;;5.65;4.00;;;;;;;;;;4950594;28;20424;-62
2022/07/24 02:52:57;;;;;;;7.38;5.28;;;;;;;;;;4950929;28;20057;-62
2022/07/24 02:55:23;;;;;;;5.90;4.03;;;;;;;;;;4950844;28;20018;-62
2022/07/24 02:57:49;;;;;;;7.53;4.15;;;;;;;;;;4950763;28;20038;-62
2022/07/24 03:00:16;;;;;;;5.88;4.20;;;;;;;;;;4950497;28;20460;-62
2022/07/24 03:02:42;;;;;;;6.50;4.25;;;;;;;;;;4951475;28;20056;-62
2022/07/24 03:05:08;;;;;;;5.55;4.22;;;;;;;;;;4951920;28;20484;-63
2022/07/24 03:07:36;;;;;;;6.05;4.43;;;;;;;;;;4950745;28;20510;-63
2022/07/24 03:10:02;;;;;;;10.18;4.55;;;;;;;;;;4950594;28;20325;-62
2022/07/24 03:12:27;;;;;;;6.35;4.07;;;;;;;;;;4951776;28;20429;-62
2022/07/24 03:14:53;;;;;;;8.25;4.35;;;;;;;;;;4950341;28;20376;-62
2022/07/24 03:17:18;;;;;;;7.50;4.15;;;;;;;;;;4950141;28;20421;-63
2022/07/24 03:19:43;;;;;;;6.18;3.95;;;;;;;;;;4949761;28;20441;-62
2022/07/24 03:22:09;;;;;;;6.45;3.85;;;;;;;;;;4951508;28;20415;-62
2022/07/24 03:24:34;;;;;;;5.55;4.22;;;;;;;;;;4950055;28;20096;-62
2022/07/24 03:27:00;;;;;;;6.68;4.18;;;;;;;;;;4950265;28;20054;-62
2022/07/24 03:29:25;;;;;;;5.05;4.15;;;;;;;;;;4950062;28;20404;-63
2022/07/24 03:31:50;;;;;;;4.85;4.03;;;;;;;;;;4951882;28;20417;-62
2022/07/24 03:34:16;;;;;;;5.93;4.43;;;;;;;;;;4950131;28;20472;-62
2022/07/24 03:36:42;;;;;;;5.28;4.03;;;;;;;;;;4950214;28;20037;-62
2022/07/24 03:39:07;;;;;;;5.22;3.80;;;;;;;;;;4950268;28;20595;-62
2022/07/24 03:41:33;;;;;;;6.63;4.55;;;;;;;;;;4950415;28;20392;-62
2022/07/24 03:43:58;;;;;;;6.28;4.50;;;;;;;;;;4950980;28;20309;-62
2022/07/24 03:46:24;;;;;;;5.75;4.57;;;;;;;;;;4949455;28;20383;-62
2022/07/24 03:48:49;;;;;;;4.97;3.92;;;;;;;;;;4950030;28;20524;-62
2022/07/24 03:51:15;;;;;;;4.10;3.33;;;;;;;;;;4950585;28;20504;-62
2022/07/24 03:53:40;;;;;;;4.75;3.30;;;;;;;;;;4949761;28;20052;-62
2022/07/24 03:56:09;;;;;;;7.38;4.40;;;;;;;;;;4950824;28;20052;-63
2022/07/24 03:58:35;;;;;;;5.90;3.75;;;;;;;;;;4949878;28;20336;-62
2022/07/24 04:01:00;;;;;;;3.83;2.97;;;;;;;;;;4949927;28;20349;-63
2022/07/24 04:03:26;;;;;;;3.90;3.20;;;;;;;;;;4949381;28;20574;-63
2022/07/24 04:05:51;;;;;;;6.13;3.70;;;;;;;;;;4950103;28;20344;-62
2022/07/24 04:08:16;;;;;;;5.50;3.40;;;;;;;;;;4949951;28;20420;-62
2022/07/24 04:10:42;;;;;;;6.30;4.13;;;;;;;;;;4949768;28;20421;-62
2022/07/24 04:13:07;;;;;;;5.93;3.60;;;;;;;;;;4951168;28;20443;-62
2022/07/24 04:15:33;;;;;;;5.18;3.60;;;;;;;;;;4949342;28;20392;-62
2022/07/24 04:17:58;;;;;;;5.13;3.40;;;;;;;;;;4950454;28;20383;-63
2022/07/24 04:20:24;;;;;;;4.88;3.60;;;;;;;;;;4949021;28;20504;-62
2022/07/24 04:22:49;;;;;;;5.22;3.83;;;;;;;;;;4951505;28;20484;-62
2022/07/24 04:25:15;;;;;;;4.75;3.67;;;;;;;;;;4949336;28;20360;-62
2022/07/24 04:27:40;;;;;;;4.45;3.35;;;;;;;;;;4949914;28;20352;-61
2022/07/24 04:30:06;;;;;;;4.82;3.35;;;;;;;;;;4953432;28;20416;-62
2022/07/24 04:32:31;;;;;;;4.22;3.22;;;;;;;;;;4953122;28;20399;-63
2022/07/24 04:34:57;;;;;;;4.95;3.47;;;;;;;;;;4953433;28;20408;-62
2022/07/24 04:37:22;;;;;;;4.80;3.47;;;;;;;;;;4953162;28;20056;-62
2022/07/24 04:39:48;;;;;;;7.85;3.55;;;;;;;;;;4953173;28;20517;-62
2022/07/24 04:42:14;;;;;;;4.28;3.63;;;;;;;;;;4953012;28;20332;-62
2022/07/24 04:44:40;;;;;;;4.15;3.13;;;;;;;;;;4952868;28;20495;-62
2022/07/24 04:47:05;;;;;;;4.68;3.67;;;;;;;;;;4953070;28;20022;-62
2022/07/24 04:49:31;;;;;;;4.60;3.50;;;;;;;;;;4953125;28;20034;-62
2022/07/24 04:51:56;;;;;;;4.70;3.17;;;;;;;;;;4953077;28;20086;-62
2022/07/24 04:54:21;;;;;;;5.00;3.88;;;;;;;;;;4952751;28;20345;-62
2022/07/24 04:56:47;;;;;;;4.40;3.03;;;;;;;;;;4952697;28;20420;-64
2022/07/24 04:59:12;;;;;;;4.05;3.45;;;;;;;;;;4952999;28;20104;-62
2022/07/24 05:01:38;;;;;;;4.97;3.95;;;;;;;;;;4952952;28;20185;-62
2022/07/24 05:04:03;;;;;;;4.05;3.53;;;;;;;;;;4952394;28;20387;-61
2022/07/24 05:06:29;;;;;;;4.53;3.35;;;;;;;;;;4953408;28;20410;-62
2022/07/24 05:08:54;;;;;;;3.92;3.13;;;;;;;;;;4952256;28;20495;-62
2022/07/24 05:11:20;;;;;;;4.50;3.38;;;;;;;;;;4954130;28;20425;-61
2022/07/24 05:13:45;;;;;;;7.70;3.40;;;;;;;;;;4954071;28;20341;-62
2022/07/24 05:16:11;;;;;;;4.75;3.28;;;;;;;;;;4952279;28;20540;-62
2022/07/24 05:18:36;;;;;;;4.32;3.17;;;;;;;;;;4952585;28;20106;-62
2022/07/24 05:21:02;;;;;;;3.85;3.03;;;;;;;;;;4952228;28;20408;-62
2022/07/24 05:23:27;;;;;;;5.20;3.60;;;;;;;;;;4952294;28;20451;-62
2022/07/24 05:25:53;;;;;;;4.53;3.38;;;;;;;;;;4951999;28;20069;-63
2022/07/24 05:28:18;;;;;;;5.65;3.50;;;;;;;;;;4951624;28;20037;-62
2022/07/24 05:30:44;;;;;;;3.55;2.78;;;;;;;;;;4610425;28;10000496;-65
2022/07/24 05:33:09;;;;;;;4.35;3.50;;;;;;;;;;4952308;28;20403;-64
2022/07/24 05:35:35;;;;;;;8.30;2.97;;;;;;;;;;4952452;28;20034;-62
2022/07/24 05:38:00;;;;;;;5.50;3.33;;;;;;;;;;4951862;28;20034;-62
2022/07/24 05:40:26;;;;;;;3.78;2.90;;;;;;;;;;4951617;28;20388;-62
2022/07/24 05:42:51;;;;;;;4.10;2.90;;;;;;;;;;4952148;28;20294;-62
2022/07/24 05:45:16;;;;;;;5.13;3.65;;;;;;;;;;4952125;28;20459;-62
2022/07/24 05:47:42;;;;;;;4.28;3.13;;;;;;;;;;4952264;28;20349;-62
2022/07/24 05:50:12;;;;;;;4.32;3.35;;;;;;;;;;4951703;28;20449;-62
2022/07/24 05:52:38;;;;;;;3.85;3.42;;;;;;;;;;4951653;28;20025;-62
2022/07/24 05:55:04;;;;;;;6.88;3.03;;;;;;;;;;4951339;28;20419;-62
2022/07/24 05:57:30;;;;;;;4.05;2.88;;;;;;;;;;4951394;28;20383;-62
2022/07/24 05:59:55;;;;;;;5.05;3.30;;;;;;;;;;4951400;28;20400;-64
2022/07/24 06:02:20;;;;;;;3.90;3.03;;;;;;;;;;4951270;28;20089;-62
2022/07/24 06:04:46;;;;;;;3.58;2.97;;;;;;;;;;4951423;28;20440;-63
2022/07/24 06:07:11;;;;;;;3.97;3.08;;;;;;;;;;4951269;28;20352;-62
2022/07/24 06:09:37;;;;;;;3.67;3.00;;;;;;;;;;4951529;28;20444;-61
2022/07/24 06:12:04;;;;;;;4.68;3.05;;;;;;;;;;4952676;28;20052;-62
2022/07/24 06:14:30;;;;;;;4.15;3.08;;;;;;;;;;4951099;28;20467;-62
2022/07/24 06:16:55;;;;;;;4.57;2.63;;;;;;;;;;4950931;28;20421;-63
2022/07/24 06:19:21;;;;;;;4.47;2.88;;;;;;;;;;4950328;28;20514;-62
2022/07/24 06:21:46;;;;;;;3.17;2.60;;;;;;;;;;4951381;28;20030;-62
2022/07/24 06:24:12;;;;;;;3.35;2.70;;;;;;;;;;4950012;28;20322;-63
2022/07/24 06:26:37;;;;;;;3.22;2.55;;;;;;;;;;4949957;28;20515;-63
2022/07/24 06:29:03;;;;;;;4.68;2.97;;;;;;;;;;4950315;28;20377;-62
2022/07/24 06:31:28;;;;;;;3.63;3.05;;;;;;;;;;4949678;28;20397;-62
2022/07/24 06:33:53;;;;;;;4.63;3.17;;;;;;;;;;4932400;28;20056;-62
2022/07/24 06:36:19;;;;;;;6.05;3.30;;;;;;;;;;4949485;28;20425;-62
2022/07/24 06:38:44;;;;;;;4.15;2.97;;;;;;;;;;4950594;28;20446;-62
2022/07/24 06:41:09;;;;;;;4.95;3.25;;;;;;;;;;4949883;28;20026;-62
2022/07/24 06:43:35;;;;;;;2.95;2.45;;;;;;;;;;4949884;28;20448;-61
2022/07/24 06:46:00;;;;;;;3.90;2.38;;;;;;;;;;4949907;28;20348;-64
2022/07/24 06:48:26;;;;;;;3.60;2.72;;;;;;;;;;4949868;28;20317;-62
2022/07/24 06:50:51;;;;;;;3.50;2.83;;;;;;;;;;4949355;28;20410;-62
2022/07/24 06:53:16;;;;;;;7.20;2.80;;;;;;;;;;4949686;28;20069;-62
2022/07/24 06:55:43;;;;;;;4.65;2.80;;;;;;;;;;4950186;28;20380;-62
2022/07/24 06:58:08;;;;;;;3.47;2.50;;;;;;;;;;4949756;28;20476;-62
2022/07/24 07:00:34;;;;;;;5.75;2.80;;;;;;;;;;4949733;28;20380;-62
2022/07/24 07:02:59;;;;;;;2.58;2.38;;;;;;;;;;4950536;28;20473;-62
2022/07/24 07:05:25;;;;;;;3.47;2.60;;;;;;;;;;4949521;28;20341;-63
2022/07/24 07:07:50;;;;;;;3.42;2.53;;;;;;;;;;4949698;28;20412;-62
2022/07/24 07:10:16;;;;;;;3.45;2.42;;;;;;;;;;4951049;28;20033;-62
2022/07/24 07:12:42;;;;;;;4.65;2.47;;;;;;;;;;4949665;28;20352;-63
2022/07/24 07:15:10;;;;;;;4.28;2.50;;;;;;;;;;4949470;28;20448;-62
2022/07/24 07:17:39;;;;;;;;;;;;;;;;;;4932134;28;20052;-63
2022/07/24 07:20:05;;;;;;;3.92;2.70;;;;;;;;;;4910773;28;1145260;-64
2022/07/24 07:22:31;;;;;;;3.10;2.42;;;;;;;;;;4950238;28;20038;-63
2022/07/24 07:24:56;;;;;;;2.95;2.45;;;;;;;;;;4951082;28;20439;-62
2022/07/24 07:27:22;;;;;;;2.97;2.30;;;;;;;;;;4950902;28;20376;-62
2022/07/24 07:29:47;;;;;;;3.70;2.55;;;;;;;;;;4951040;28;20388;-63
2022/07/24 07:32:12;;;;;;;4.00;2.90;;;;;;;;;;4949748;28;20515;-63
2022/07/24 07:34:38;;;;;;;4.50;2.15;;;;;;;;;;4933120;28;20455;-64
2022/07/24 07:37:03;;;;;;;2.72;2.45;;;;;;;;;;4949915;28;20351;-62
2022/07/24 07:39:29;;;;;;;2.92;2.15;;;;;;;;;;4949738;28;20429;-63
2022/07/24 07:41:54;;;;;;;3.17;2.42;;;;;;;;;;4950523;28;20341;-64
2022/07/24 07:44:19;;;;;;;3.20;2.17;;;;;;;;;;4950981;28;20054;-63
2022/07/24 07:46:45;;;;;;;4.95;2.50;;;;;;;;;;4950686;28;20341;-63
2022/07/24 07:49:10;;;;;;;3.30;2.40;;;;;;;;;;4949802;28;20320;-62
2022/07/24 07:51:35;;;;;;;2.35;2.15;;;;;;;;;;4949882;28;20345;-63
2022/07/24 07:54:01;;;;;;;2.97;2.13;;;;;;;;;;4950121;28;20025;-64
2022/07/24 07:56:30;;;;;;;2.10;1.90;;;;;;;;;;4949757;28;20034;-62
2022/07/24 07:58:56;;;;;;;3.20;2.78;;;;;;;;;;4950201;28;20458;-63
2022/07/24 08:01:21;;;;;;;3.30;2.35;;;;;;;;;;4949864;28;20455;-62
2022/07/24 08:03:46;;;;;;;3.22;1.95;;;;;;;;;;4951797;28;20069;-62
2022/07/24 08:06:12;;;;;;;3.70;2.40;;;;;;;;;;4953301;28;20506;-64
2022/07/24 08:08:38;;;;;;;3.33;2.20;;;;;;;;;;4953292;28;20455;-63
2022/07/24 08:11:03;;;;;;;2.97;2.22;;;;;;;;;;4953533;28;20459;-62
2022/07/24 08:13:29;;;;;;;2.05;1.85;;;;;;;;;;4953915;28;20437;-63
2022/07/24 08:15:54;;;;;;;4.65;2.20;;;;;;;;;;4953501;28;20368;-62
2022/07/24 08:18:19;;;;;;;2.90;2.22;;;;;;;;;;4953581;28;20026;-62
2022/07/24 08:20:45;;;;;;;2.60;2.13;;;;;;;;;;4953745;28;20081;-63
2022/07/24 08:23:10;;;;;;;3.67;2.20;;;;;;;;;;4953109;28;20348;-62
2022/07/24 08:25:36;;;;;;;3.38;2.10;;;;;;;;;;4953254;28;20069;-63
2022/07/24 08:28:01;;;;;;;2.90;2.20;;;;;;;;;;4952988;28;20440;-62
2022/07/24 08:30:26;;;;;;;4.03;1.90;;;;;;;;;;4953343;28;20460;-63
2022/07/24 08:32:52;;;;;;;2.72;1.92;;;;;;;;;;4953095;28;20483;-63
2022/07/24 08:35:18;;;;;;;2.95;2.20;;;;;;;;;;4953192;28;20030;-63
2022/07/24 08:37:43;;;;;;;2.40;1.80;;;;;;;;;;4953089;28;20333;-62
2022/07/24 08:40:12;;;;;;;3.75;2.20;;;;;;;;;;4953131;28;20535;-63
2022/07/24 08:42:38;;;;;;;2.28;1.92;;;;;;;;;;4952759;28;20095;-63
2022/07/24 08:45:04;;;;;;;4.55;2.33;;;;;;;;;;4952607;28;20436;-63
2022/07/24 08:47:31;;;;;;;3.38;2.10;;;;;;;;;;4953113;28;20100;-62
2022/07/24 08:49:58;;;;;;;4.53;2.38;;;;;;;;;;4953111;28;20030;-63
2022/07/24 08:52:24;;;;;;;2.85;2.10;;;;;;;;;;4935529;28;20298;-63
2022/07/24 08:54:50;;;;;;;2.58;2.00;;;;;;;;;;4952583;28;20417;-63
2022/07/24 08:57:15;;;;;;;2.63;2.15;;;;;;;;;;4952377;28;20372;-63
2022/07/24 08:59:41;;;;;;;1.80;1.60;;;;;;;;;;4952807;28;20532;-62
2022/07/24 09:02:06;;;;;;;2.97;1.80;;;;;;;;;;4952537;28;20337;-63
2022/07/24 09:04:35;;;;;;;3.00;1.85;;;;;;;;;;4952347;28;20436;-63
2022/07/24 09:07:04;;;;;;;2.25;1.55;;;;;;;;;;4952488;28;20348;-62
2022/07/24 09:09:30;;;;;;;3.10;1.95;;;;;;;;;;4952453;28;20452;-63
2022/07/24 09:12:15;;;;;;;3.92;2.00;;;;;;;;;;4952324;28;20483;-62
2022/07/24 09:14:43;;;;;;;2.70;1.73;;;;;;;;;;4952174;28;20111;-62
2022/07/24 09:17:14;;;;;;;2.13;1.83;;;;;;;;;;4952215;28;20455;-63
2022/07/24 09:19:50;;;;;;;2.63;2.20;;;;;;;;;;4953008;28;20072;-63
2022/07/24 09:22:34;;;;;;;2.83;1.60;;;;;;;;;;4952225;28;20349;-62
2022/07/24 09:25:14;;;;;;;2.47;1.73;;;;;;;;;;4952177;28;20423;-63
2022/07/24 09:27:49;;;;;;;2.35;1.80;;;;;;;;;;4952020;28;20491;-64
2022/07/24 09:30:42;;;;;;;2.92;1.63;;;;;;;;;;4951993;28;20440;-62
2022/07/24 09:33:15;;;;;;;2.28;1.90;;;;;;;;;;4951677;28;20437;-62
2022/07/24 09:35:47;;;;;;;1.67;1.58;;;;;;;;;;4952263;28;20029;-63
2022/07/24 09:38:16;;;;;;;2.08;1.80;;;;;;;;;;4952372;28;20496;-63
2022/07/24 09:40:45;;;;;;;2.70;1.77;;;;;;;;;;4952014;28;20463;-63
2022/07/24 09:43:16;;;;;;;2.00;1.50;;;;;;;;;;4953051;28;20523;-63
2022/07/24 09:46:08;;;;;;;3.13;1.70;;;;;;;;;;4951913;28;20475;-62
2022/07/24 09:48:35;;;;;;;2.88;1.90;;;;;;;;;;4951203;28;20415;-62
2022/07/24 09:51:09;;;;;;;3.30;2.13;;;;;;;;;;4951887;28;20541;-62
2022/07/24 09:53:35;;;;;;;1.85;1.65;;;;;;;;;;4951742;28;20399;-62
2022/07/24 09:56:12;;;;;;;2.35;1.60;;;;;;;;;;4951216;28;20022;-62
2022/07/24 09:58:59;;;;;;;2.00;1.58;;;;;;;;;;4951279;28;20658;-62
2022/07/24 10:01:27;;;;;;;2.15;1.95;;;;;;;;;;4951073;28;20387;-62
2022/07/24 10:03:54;;;;;;;2.05;1.73;;;;;;;;;;4951280;28;20444;-62
2022/07/24 10:06:21;;;;;;;2.25;2.05;;;;;;;;;;4950961;28;20030;-62
2022/07/24 10:08:50;;;;;;;2.20;1.70;;;;;;;;;;4952382;28;20105;-62
2022/07/24 10:11:17;;;;;;;;;;;;;;;;;;4951581;28;20508;-63
2022/07/24 10:13:42;;;;;;;3.15;1.60;;;;;;;;;;4951840;28;20382;-62
2022/07/24 10:16:14;;;;;;;2.40;1.70;;;;;;;;;;4951491;28;20516;-62
2022/07/24 10:18:42;;;;;;;2.30;1.80;;;;;;;;;;4951455;28;20026;-62
2022/07/24 10:21:11;;;;;;;1.58;1.40;;;;;;;;;;4951695;28;20456;-62
2022/07/24 10:23:56;;;;;;;;;;;;;;;;;;4951188;28;20326;-63
2022/07/24 10:26:49;;;;;;;3.33;1.60;;;;;;;;;;4900246;28;20228;-62
2022/07/24 10:29:18;;;;;;;1.52;1.42;;;;;;;;;;4947785;28;20423;-62
2022/07/24 10:31:46;;;;;;;1.90;1.52;;;;;;;;;;4950825;28;20503;-63
2022/07/24 10:34:24;;;;;;;3.03;1.80;;;;;;;;;;4933380;28;20441;-62
2022/07/24 10:37:13;;;;;;;2.30;1.90;;;;;;;;;;4950895;28;20030;-62
2022/07/24 10:39:47;;;;;;;2.40;1.50;;;;;;;;;;4933549;28;20433;-63
2022/07/24 10:42:12;;;;;;;2.53;1.70;;;;;;;;;;4951163;28;20481;-62
2022/07/24 10:44:38;;;;;;;3.45;1.58;;;;;;;;;;4950842;28;20029;-62
2022/07/24 10:47:06;;;;;;;2.08;1.60;;;;;;;;;;4950647;28;20392;-62
2022/07/24 10:49:49;;;;;;;1.88;1.67;;;;;;;;;;4951192;28;20444;-63
2022/07/24 10:52:27;;;;;;;2.35;1.85;;;;;;;;;;4951117;28;20452;-62
2022/07/24 10:55:30;;;;;;;2.92;2.13;;;;;;;;;;4951214;28;20429;-63
2022/07/24 10:58:00;;;;;;;3.08;1.73;;;;;;;;;;4950205;28;20432;-63
2022/07/24 11:00:34;;;;;;;2.17;1.75;;;;;;;;;;4951281;28;20384;-63
2022/07/24 11:03:05;;;;;;;3.72;1.80;;;;;;;;;;4950640;28;20103;-63
2022/07/24 11:05:35;;;;;;;3.60;1.90;;;;;;;;;;4950141;28;20317;-63
2022/07/24 11:08:30;;;;;;;2.08;1.75;;;;;;;;;;4950395;28;20456;-63
2022/07/24 11:11:09;;;;;;;1.70;1.50;;;;;;;;;;4949334;28;20132;-63
2022/07/24 11:13:37;;;;;;;1.50;1.40;;;;;;;;;;4950084;28;20588;-65
2022/07/24 11:16:15;;;;;;;1.92;1.40;;;;;;;;;;4950185;28;20389;-63
2022/07/24 11:18:49;;;;;;;1.45;1.30;;;;;;;;;;4950288;28;20367;-63
2022/07/24 11:21:35;;;;;;;1.88;1.50;;;;;;;;;;4949803;28;20376;-63
2022/07/24 11:24:27;;;;;;;2.70;1.55;;;;;;;;;;4949984;28;20324;-63
2022/07/24 11:26:57;;;;;;;1.20;1.10;;;;;;;;;;4951509;28;20033;-63
2022/07/24 11:29:32;;;;;;;1.50;1.30;;;;;;;;;;4950021;28;20412;-63
2022/07/24 11:32:03;;;;;;;2.05;1.45;;;;;;;;;;4949873;28;20487;-63
2022/07/24 11:34:29;;;;;;;1.95;1.48;;;;;;;;;;4949225;28;20342;-63
2022/07/24 11:36:56;;;;;;;1.52;1.30;;;;;;;;;;4950273;28;20456;-63
2022/07/24 11:39:30;;;;;;;1.75;1.58;;;;;;;;;;4949252;28;20356;-63
2022/07/24 11:41:58;;;;;;;1.40;1.30;;;;;;;;;;4947919;28;20435;-63
2022/07/24 11:44:32;;;;;;;2.10;1.52;;;;;;;;;;4947969;28;20503;-64
2022/07/24 11:46:59;;;;;;;2.30;1.70;;;;;;;;;;4948304;28;20373;-63
2022/07/24 11:49:25;;;;;;;2.28;1.75;;;;;;;;;;4947949;28;20625;-63
2022/07/24 11:51:53;;;;;;;2.55;1.75;;;;;;;;;;4948361;28;20437;-66
2022/07/24 11:54:24;;;;;;;1.50;1.40;;;;;;;;;;4948757;28;20088;-62
2022/07/24 11:56:50;;;;;;;2.30;1.60;;;;;;;;;;4948117;28;20345;-63
2022/07/24 11:59:30;;;;;;;2.15;1.60;;;;;;;;;;4931007;28;20437;-63
2022/07/24 12:02:03;;;;;;;1.50;1.40;;;;;;;;;;4948107;28;20398;-64
2022/07/24 12:04:28;;;;;;;1.75;1.33;;;;;;;;;;4948254;28;20404;-63
2022/07/24 12:06:54;;;;;;;3.88;1.23;;;;;;;;;;4948021;28;20113;-64
2022/07/24 12:09:19;;;;;;;4.07;1.67;;;;;;;;;;4948928;28;20352;-63
2022/07/24 12:11:45;;;;;;;1.98;1.35;;;;;;;;;;4948705;28;20420;-63
2022/07/24 12:14:18;;;;;;;2.38;1.73;;;;;;;;;;4948336;28;20383;-63
2022/07/24 12:16:51;;;;;;;1.60;1.35;;;;;;;;;;4947686;28;20521;-64
2022/07/24 12:19:19;;;;;;;1.52;1.30;;;;;;;;;;4947833;28;20441;-63
2022/07/24 12:21:46;;;;;;;1.42;1.23;;;;;;;;;;4947697;28;20384;-63
2022/07/24 12:24:12;;;;;;;2.90;1.52;;;;;;;;;;4948260;28;20448;-63
2022/07/24 12:26:56;;;;;;;2.22;1.42;;;;;;;;;;4930209;28;20376;-64
2022/07/24 12:29:22;;;;;;;2.30;1.30;;;;;;;;;;4947631;28;20441;-63
2022/07/24 12:31:48;;;;;;;2.15;1.30;;;;;;;;;;4949007;28;20344;-63
2022/07/24 12:34:14;;;;;;;1.70;1.30;;;;;;;;;;4947530;28;20322;-64
2022/07/24 12:36:40;;;;;;;1.30;1.20;;;;;;;;;;4947875;28;20361;-63
2022/07/24 12:39:06;;;;;;;1.52;1.33;;;;;;;;;;4947822;28;20030;-63
2022/07/24 12:41:42;;;;;;;1.88;1.27;;;;;;;;;;4948436;28;20456;-63
2022/07/24 12:44:07;;;;;;;1.63;1.20;;;;;;;;;;4948205;28;20475;-63
2022/07/24 12:46:35;;;;;;;1.17;1.00;;;;;;;;;;4947706;28;20471;-63
2022/07/24 12:49:11;;;;;;;2.00;0.98;;;;;;;;;;4948102;28;20428;-63
2022/07/24 12:51:49;;;;;;;1.30;1.20;;;;;;;;;;4951008;28;20372;-63
2022/07/24 12:54:23;;;;;;;1.30;1.02;;;;;;;;;;4951244;28;20491;-63
2022/07/24 12:56:54;;;;;;;1.58;1.27;;;;;;;;;;4951825;28;20399;-64
2022/07/24 12:59:39;;;;;;;1.88;1.25;;;;;;;;;;4950805;28;20428;-65
2022/07/24 13:02:15;;;;;;;2.30;1.10;;;;;;;;;;4950013;28;20353;-64
2022/07/24 13:04:45;;;;;;;1.42;1.23;;;;;;;;;;4951348;28;20313;-63
2022/07/24 13:07:11;;;;;;;1.27;1.00;;;;;;;;;;4950611;28;20440;-63
2022/07/24 13:09:36;;;;;;;1.60;1.33;;;;;;;;;;4939161;28;20396;-64
2022/07/24 13:12:02;;;;;;;2.38;1.55;;;;;;;;;;4950564;28;20372;-63
2022/07/24 13:14:29;;;;;;;1.85;1.25;;;;;;;;;;4950529;28;20452;-63
2022/07/24 13:17:02;;;;;;;2.63;1.10;;;;;;;;;;4950284;28;20429;-64
2022/07/24 13:19:27;;;;;;;1.45;1.20;;;;;;;;;;4951284;28;20425;-63
2022/07/24 13:21:52;;;;;;;1.52;1.27;;;;;;;;;;4951231;28;20139;-63
2022/07/24 13:24:18;;;;;;;2.15;1.38;;;;;;;;;;4950666;28;20476;-63
2022/07/24 13:26:46;;;;;;;1.80;1.15;;;;;;;;;;4951536;28;20081;-64
2022/07/24 13:29:12;;;;;;;3.50;1.35;;;;;;;;;;4950542;28;20342;-63
2022/07/24 13:31:38;;;;;;;1.25;1.10;;;;;;;;;;4950064;28;20610;-63
2022/07/24 13:34:04;;;;;;;1.50;1.20;;;;;;;;;;4950197;28;20457;-63
2022/07/24 13:36:30;;;;;;;1.63;1.02;;;;;;;;;;4949887;28;20321;-63
2022/07/24 13:38:55;;;;;;;1.75;1.33;;;;;;;;;;4933335;28;20394;-63
2022/07/24 13:41:21;;;;;;;2.45;1.38;;;;;;;;;;4950463;28;20428;-64
2022/07/24 13:43:47;;;;;;;1.35;1.25;;;;;;;;;;4949988;28;20431;-63
2022/07/24 13:46:15;;;;;;;1.95;1.15;;;;;;;;;;4950849;28;20448;-64
2022/07/24 13:48:42;;;;;;;2.08;1.40;;;;;;;;;;4949912;28;20440;-63
2022/07/24 13:51:07;;;;;;;1.15;1.05;;;;;;;;;;4932345;28;20380;-63
2022/07/24 13:53:33;;;;;;;1.40;1.15;;;;;;;;;;4950190;28;20361;-64
2022/07/24 13:55:58;;;;;;;2.80;1.13;;;;;;;;;;4950086;28;20045;-63
2022/07/24 13:58:23;;;;;;;1.88;1.30;;;;;;;;;;4950053;28;20464;-63
2022/07/24 14:00:49;;;;;;;2.60;1.25;;;;;;;;;;4948901;28;20030;-63
2022/07/24 14:03:14;;;;;;;1.65;1.25;;;;;;;;;;4949717;28;20346;-62
2022/07/24 14:05:40;;;;;;;1.58;1.40;;;;;;;;;;4949563;28;20483;-64
2022/07/24 14:08:06;;;;;;;1.67;1.08;;;;;;;;;;4932122;28;20485;-63
2022/07/24 14:10:31;;;;;;;1.52;1.10;;;;;;;;;;4950604;28;20518;-63
2022/07/24 14:12:57;;;;;;;3.45;1.20;;;;;;;;;;4949702;28;20034;-63
2022/07/24 14:15:23;;;;;;;3.35;1.40;;;;;;;;;;4931962;28;20341;-63
2022/07/24 14:17:49;;;;;;;2.08;1.40;;;;;;;;;;4949228;28;20460;-63
2022/07/24 14:20:14;;;;;;;1.30;1.02;;;;;;;;;;4948992;28;20477;-63
2022/07/24 14:22:40;;;;;;;2.08;1.20;;;;;;;;;;4949917;28;20022;-62
2022/07/24 14:25:07;;;;;;;1.80;1.30;;;;;;;;;;4949754;28;20369;-63
2022/07/24 14:27:33;;;;;;;1.90;1.23;;;;;;;;;;4950087;28;20349;-63
2022/07/24 14:29:58;;;;;;;1.40;1.20;;;;;;;;;;4931963;28;20069;-73
2022/07/24 14:32:23;;;;;;;1.60;1.23;;;;;;;;;;4949048;28;20022;-63
2022/07/24 14:34:49;;;;;;;1.77;1.00;;;;;;;;;;4949931;28;20384;-63
2022/07/24 14:37:14;;;;;;;3.88;1.30;;;;;;;;;;4949142;28;20084;-63
2022/07/24 14:39:40;;;;;;;1.33;1.05;;;;;;;;;;4949474;28;20475;-64
2022/07/24 14:42:05;;;;;;;1.23;1.10;;;;;;;;;;4949346;28;20396;-62
2022/07/24 14:44:31;;;;;;;1.65;1.20;;;;;;;;;;4949423;28;20461;-63